Date,TemperatureHighF,TemperatureAvgF,TemperatureLowF,DewpointHighF,DewpointAvgF,DewpointLowF,HumidityHigh,HumidityAvg,HumidityLow,PressureMaxIn,PressureMinIn,WindSpeedMaxMPH,WindSpeedAvgMPH,GustSpeedMaxMPH,PrecipitationSumIn
2012-12-1,46.2,39.3,33.4,38.7,32.3,27.6,79,76,72,30.05,29.72,0,0,0,0.00
2012-12-2,40.5,33.8,26.1,33.8,27.9,20.7,80,79,77,29.99,29.78,0,0,0,0.00
2012-12-3,56.7,46.8,39.7,44.8,34.6,19.5,77,64,39,29.93,29.55,0,0,0,0.00
2012-12-4,41.9,29.3,19.0,19.9,10.0,2.6,54,44,36,30.40,29.93,0,0,0,0.00
2012-12-5,40.3,28.4,16.9,18.4,8.8,2.0,55,44,36,30.40,29.84,0,0,0,0.00
2012-12-6,46.9,39.3,24.1,29.6,21.1,12.1,60,48,39,30.02,29.75,0,0,0,0.00
2012-12-7,29.8,25.6,20.3,21.8,17.1,11.4,78,70,55,30.05,29.99,0,0,0,0.00
2012-12-8,36.9,28.8,23.5,25.4,19.3,16.7,80,68,49,30.05,29.99,0,0,0,0.00
2012-12-9,31.6,28.6,16.5,25.3,22.7,9.1,80,78,60,30.02,29.81,0,0,0,0.00
2012-12-10,17.1,8.7,0.7,8.2,-2.9,-14.4,71,59,46,29.96,29.81,0,0,0,0.00
2012-12-11,19.2,12.1,4.1,7.8,-0.4,-11.3,72,57,48,29.99,29.78,0,0,0,0.00
2012-12-12,41.7,28.2,5.7,20.9,14.7,-2.9,79,58,40,29.99,29.84,0,0,0,0.00
2012-12-13,45.1,30.1,20.7,21.6,14.8,8.1,78,54,38,30.11,29.90,0,0,0,0.00
2012-12-14,40.3,29.2,16.2,22.9,16.9,10.5,80,62,40,30.14,29.78,0,0,0,0.00
2012-12-15,38.1,35.7,32.9,30.5,28.5,22.9,79,75,55,29.78,29.52,0,0,0,0.00
2012-12-16,33.8,24.6,18.3,28.0,18.8,12.2,81,78,76,29.81,29.55,0,0,0,0.00
2012-12-17,24.1,22.1,19.9,18.5,16.4,13.9,80,78,77,29.81,29.69,0,0,0,0.00
2012-12-18,27.5,24.3,22.3,21.8,18.1,16.8,80,77,74,29.81,29.63,0,0,0,0.00
2012-12-19,40.3,28.6,24.1,23.1,19.0,11.2,78,68,42,30.02,29.81,0,0,0,0.00
2012-12-20,25.5,20.3,10.8,14.5,9.9,-0.8,76,64,52,30.05,29.84,0,0,0,0.00
2012-12-21,26.4,11.2,5.9,6.2,-2.8,-7.4,59,53,39,30.25,30.05,0,0,0,0.00
2012-12-22,35.4,17.5,8.1,13.1,1.9,-7.2,73,50,38,30.17,29.96,0,0,0,0.00
2012-12-23,23.5,14.6,8.1,10.2,2.2,-1.1,74,58,43,30.14,30.02,0,0,0,0.00
2012-12-24,18.7,12.2,3.2,2.2,-3.2,-13.4,58,49,43,30.25,29.99,0,0,0,0.00
2012-12-25,12.6,2.9,-4.0,-4.8,-13.7,-20.0,45,45,45,30.46,30.25,0,0,0,0.00
2012-12-26,24.4,9.3,0.7,2.7,-8.6,-15.7,46,43,37,30.37,30.22,0,0,0,0.00
2012-12-27,20.7,14.6,6.8,13.0,1.4,-11.0,77,56,43,30.22,30.14,0,0,0,0.00
2012-12-28,27.0,18.7,12.7,19.7,11.8,7.5,79,75,56,30.14,29.99,0,0,0,0.00
2012-12-29,23.2,12.4,2.3,11.5,2.3,-10.6,80,64,44,30.17,30.02,0,0,0,0.00
2012-12-30,25.3,12.4,0.3,11.6,-0.4,-12.4,70,56,46,30.17,29.87,0,0,0,0.00
2012-12-31,16.5,8.4,-2.2,7.6,-6.4,-21.1,69,51,39,30.22,29.96,0,0,0,0.00